Map

Track Data

SID SEASON NUMBER BASIN SUBBASIN NAME ISO_TIME NATURE LAT LON WMO_WIND WMO_PRES WMO_AGENCY TRACK_TYPE DIST2LAND LANDFALL IFLAG USA_AGENCY USA_ATCF_ID USA_LAT USA_LON USA_RECORD USA_STATUS USA_WIND USA_PRES USA_SSHS USA_R34_NE USA_R34_SE USA_R34_SW USA_R34_NW USA_R50_NE USA_R50_SE USA_R50_SW USA_R50_NW USA_R64_NE USA_R64_SE USA_R64_SW USA_R64_NW USA_POCI USA_ROCI USA_RMW USA_EYE TOKYO_LAT TOKYO_LON TOKYO_GRADE TOKYO_WIND TOKYO_PRES TOKYO_R50_DIR TOKYO_R50_LONG TOKYO_R50_SHORT TOKYO_R30_DIR TOKYO_R30_LONG TOKYO_R30_SHORT TOKYO_LAND CMA_LAT CMA_LON CMA_CAT CMA_WIND CMA_PRES HKO_LAT HKO_LON HKO_CAT HKO_WIND HKO_PRES NEWDELHI_LAT NEWDELHI_LON NEWDELHI_GRADE NEWDELHI_WIND NEWDELHI_PRES NEWDELHI_CI NEWDELHI_DP NEWDELHI_POCI REUNION_LAT REUNION_LON REUNION_TYPE REUNION_WIND REUNION_PRES REUNION_TNUM REUNION_CI REUNION_RMW REUNION_R34_NE REUNION_R34_SE REUNION_R34_SW REUNION_R34_NW REUNION_R50_NE REUNION_R50_SE REUNION_R50_SW REUNION_R50_NW REUNION_R64_NE REUNION_R64_SE REUNION_R64_SW REUNION_R64_NW BOM_LAT BOM_LON BOM_TYPE BOM_WIND BOM_PRES BOM_TNUM BOM_CI BOM_RMW BOM_R34_NE BOM_R34_SE BOM_R34_SW BOM_R34_NW BOM_R50_NE BOM_R50_SE BOM_R50_SW BOM_R50_NW BOM_R64_NE BOM_R64_SE BOM_R64_SW BOM_R64_NW BOM_ROCI BOM_POCI BOM_EYE BOM_POS_METHOD BOM_PRES_METHOD NADI_LAT NADI_LON NADI_CAT NADI_WIND NADI_PRES WELLINGTON_LAT WELLINGTON_LON WELLINGTON_WIND WELLINGTON_PRES DS824_LAT DS824_LON DS824_STAGE DS824_WIND DS824_PRES TD9636_LAT TD9636_LON TD9636_STAGE TD9636_WIND TD9636_PRES TD9635_LAT TD9635_LON TD9635_WIND TD9635_PRES TD9635_ROCI NEUMANN_LAT NEUMANN_LON NEUMANN_CLASS NEUMANN_WIND NEUMANN_PRES MLC_LAT MLC_LON MLC_CLASS MLC_WIND MLC_PRES USA_GUST BOM_GUST BOM_GUST_PER REUNION_GUST REUNION_GUST_PER USA_SEAHGT USA_SEARAD_NE USA_SEARAD_SE USA_SEARAD_SW USA_SEARAD_NW STORM_SPEED STORM_DIR
1898221N21089 1898 26 NI BB NOT_NAMED 1898-08-09 00:00:00 TS 21.4000 88.7000 main 30 24 _________O____ -1 21.4000 88.7000 TC 34 1 293
1898221N21089 1898 26 NI BB NOT_NAMED 1898-08-09 03:00:00 TS 21.4267 88.6250 main 24 15 _________PO___ -1 21.4400 88.5875 TC 36 21.4000 88.7000 2 2 302
1898221N21089 1898 26 NI BB NOT_NAMED 1898-08-09 06:00:00 TS 21.4882 88.5470 main 11 0 _________OP___ -1 21.5000 88.5000 TC 39 21.4704 88.6174 2 2 320
1898221N21089 1898 26 NI BB NOT_NAMED 1898-08-09 09:00:00 TS 21.5711 88.4876 main 0 0 _________PP___ -1 21.5925 88.4500 TC 42 21.5427 88.5378 2 2 328
1898221N21089 1898 26 NI BB NOT_NAMED 1898-08-09 12:00:00 TS 21.6593 88.4322 main 0 0 _________OP___ -1 21.7000 88.4000 TC 45 21.6186 88.4643 2 2 324
1898221N21089 1898 26 NI BB NOT_NAMED 1898-08-09 15:00:00 TS 21.7463 88.3537 main 0 0 _________PO___ -1 21.7925 88.3075 TC 41 21.7000 88.4000 3 2 321
1898221N21089 1898 26 NI BB NOT_NAMED 1898-08-09 18:00:00 TS 21.8450 88.2716 main 0 0 _________OP___ -1 21.9000 88.2000 TC 37 21.7901 88.3433 3 3 326
1898221N21089 1898 26 NI BB NOT_NAMED 1898-08-09 21:00:00 TS 21.9622 88.2020 main 0 0 _________PP___ -1 22.0274 88.1298 TC 33 21.8971 88.2742 3 3 327
1898221N21089 1898 26 NI BB NOT_NAMED 1898-08-10 00:00:00 TS 22.1153 88.0840 main 0 0 _________OP___ -1 22.2000 88.0000 TC 30 22.0306 88.1681 3 5 319
1898221N21089 1898 26 NI BB NOT_NAMED 1898-08-10 03:00:00 TS 22.3175 87.8688 main 0 0 _________PO___ -1 22.4350 87.7376 TC 30 22.2000 88.0000 1 7 312
1898221N21089 1898 26 NI BB NOT_NAMED 1898-08-10 06:00:00 TS 22.5552 87.5640 main 0 0 _________OP___ -1 22.7000 87.4000 TC 30 22.4104 87.7280 1 8 309
1898221N21089 1898 26 NI BB NOT_NAMED 1898-08-10 09:00:00 TS 22.8028 87.2191 main 0 0 _________PP___ -1 22.9501 87.0425 TC 30 22.6556 87.3956 1 8 308
1898221N21089 1898 26 NI BB NOT_NAMED 1898-08-10 12:00:00 TS 23.0615 86.8702 main 0 0 _________OP___ -1 23.2000 86.7000 TC 30 22.9229 87.0404 1 8 311
1898221N21089 1898 26 NI BB NOT_NAMED 1898-08-10 15:00:00 TS 23.3212 86.5674 main 0 0 _________PO___ -1 23.4424 86.4348 TC 30 23.2000 86.7000 1 8 316
1898221N21089 1898 26 NI BB NOT_NAMED 1898-08-10 18:00:00 TS 23.5981 86.3001 main 0 0 _________OP___ -1 23.7000 86.2000 TC 30 23.4962 86.4002 1 8 320
1898221N21089 1898 26 NI BB NOT_NAMED 1898-08-10 21:00:00 TS 23.9087 86.0266 main 0 0 _________PP___ -1 24.0225 85.9277 TC 30 23.7950 86.1254 1 8 322
1898221N21089 1898 26 NI BB NOT_NAMED 1898-08-11 00:00:00 TS 24.1856 85.7939 main 0 0 _________OP___ -1 24.3000 85.7000 TC 30 24.0713 85.8878 1 6 322
1898221N21089 1898 26 NI BB NOT_NAMED 1898-08-11 03:00:00 TS 24.3650 85.6349 main 0 0 _________PO___ -1 24.4299 85.5698 TC 30 24.3000 85.7000 1 4 320
1898221N21089 1898 26 NI BB NOT_NAMED 1898-08-11 06:00:00 TS 24.4689 85.5350 main 0 0 _________OP___ -1 24.5000 85.5000 TC 30 24.4379 85.5700 1 3 322
1898221N21089 1898 26 NI BB NOT_NAMED 1898-08-11 09:00:00 TS 24.5611 85.4658 main 0 0 _________PP___ -1 24.5925 85.4425 TC 30 24.5297 85.4892 1 2 330
1898221N21089 1898 26 NI BB NOT_NAMED 1898-08-11 12:00:00 TS 24.6534 85.4194 main 0 0 _________OP___ -1 24.7000 85.4000 TC 30 24.6067 85.4389 1 2 340
1898221N21089 1898 26 NI BB NOT_NAMED 1898-08-11 15:00:00 TS 24.7675 85.3750 main 0 0 _________PO___ -1 24.8350 85.3500 TC 30 24.7000 85.4000 1 3 343
1898221N21089 1898 26 NI BB NOT_NAMED 1898-08-11 18:00:00 TS 24.9049 85.3325 main 0 0 _________OP___ -1 25.0000 85.3000 TC 30 24.8335 85.3569 1 3 345
1898221N21089 1898 26 NI BB NOT_NAMED 1898-08-11 21:00:00 TS 25.0786 85.2848 main 0 0 _________PP___ -1 25.1925 85.2500 TC 30 25.0026 85.3080 1 4 346
1898221N21089 1898 26 NI BB NOT_NAMED 1898-08-12 00:00:00 TS 25.2636 85.2367 main 0 0 _________OP___ -1 25.4000 85.2000 TC 30 25.1954 85.2550 1 3 346
1898221N21089 1898 26 NI BB NOT_NAMED 1898-08-12 03:00:00 NR 25.4000 85.2000 main 0 __________O___ -1 TC 25.4000 85.2000 1 3 343

About IBTrACS Database

This database is a web-friendly format of International Best Track Archive for Climate Stewardship (IBTrACS), a global best track data archive curated by NOAA dating back to 1842.

Updated: 2021-10-25